Pagina principale
METAR-TAF:

METAR-TAF

Aeroporti :

East Hampton Airport

East Hampton, New York, Stati Uniti

latitudine: 40-57-34N, longitudine: 072-15-07W, altezza: 17 m

Osservazione

Il bollettino è stato emesso 18 minuti fa, alle 07:55 UTC
Vento 3 kt da nord
Temperature 11°C
Umidità 94%
Pressione 1016 hPa
Visibilità: 16.1 km
Cielo sereno

METAR: KHTO 240755Z AUTO 35003KT 10SM CLR 11/10 A2999 RMK AO2 T01050095

Ora: 04:13 (08:13 UTC)


TAF: mancante

Osservazioni e previsioni meteorologiche di più di 4000 aeroporti (messaggi METAR e TAF).

Le stazioni disponibili sono rappresentate dai dischi gialli e rossi sulla carta.

Puntare il mouse per vedere il nome della stazione.

Clicca sopra per visualizzare le osservazioni e previsioni meteorologiche.

Per cambiare la mappa : fare clic sui pulsanti verdi con una croce nera per ingrandire, il pulsante verde con un trattino per diminuire, o sulla freccia verde per le mappe adiacenti.


METAR-TAF: